메인 페이지
METAR-TAF:

METAR-TAF

공항 :

코나크리, 기니

위도: 09-34N, 경도: 013-37W, 고도: 26m

현재 날씨관측

예보는 29분 전, 10:00시(UTC)에 발표되었습니다.
6kt
온도 26°C
습도 84%
기압 1014 hPa
시정: 4000m
고도 1500ft 상공 구름 조금
고도 11000ft 상공 구름 보통
박무

METAR: GUCY 191000Z 35006KT 4000 BR FEW015 SCT110 26/23 Q1014 NOSIG

시각: 10:29 (10:29 UTC)

예보

예보는 5 시간 29분 전, 05:00시(UTC)에 발표되었습니다.
예보 대상 시간: 19일 06시부터 20일 12시까지 (UTC)
북서6kt
시정: 5000m
연무
일시적
19일 06시부터 19일 11시까지 (UTC)
여러 방향의 바람 2kt
시정: 3000m
박무
전환 중
19일 15시부터 19일 19시까지 (UTC)
6kt
시정: 7000m
연무

TAF: GUCY 190500Z 1906/2012 32006KT 5000 HZ NSC TEMPO 1906/1911 VRB02KT 3000 BR BECMG 1915/1919 36006KT 7000 HZ NSC

4,000개 이상의 공항 관측 자료 및 예보 (METAR 및 TAF 보고).

지도상에서 검색 가능한 기상관측소가 노란 점과 빨간 점으로 표시되어 있습니다.

기상관측소 명을 보려면 표시 위로 마우스를 이동하세요.

날씨 관측과 예보를 보려면 클릭하세요.

지도 변경 : 확대하려면 엑스 표시가 있는 녹색 버튼, 축소하려면 빼기 표시가 있는 녹색 버튼, 다음 페이지의 지도를 보려면 녹색 화살표를 클릭하세요.


METAR-TAF: